Wind From: 11-12-2017 06:00 Until: 12-12-2017 06:00 warning for: Wind Level: Orange info button

Power and phone distribution networks may be disrupted for relatively long periods., Roofs and chimneys can be damaged. , Tree branches may break. , Vehicles can be deported. , Traffic may be disrupted, particularly on secondary roads in forest areas. Limit your trips. , Limit your speed in highway driving, especially if you drive a vehicle or hitch sensitive to wind. , Do not go for walks in forests or along the coast., In town, be vigilant against possible falling objects., Do not work on roofs and do not touch any electrical line fallen on the ground., Store or secure sensitive objects to wind or likely to be damaged., Always install power generators outside buildings. 


Meteo18 Weather Cam more information Meteo18 Weather Cam


Thunder radar more information blitzortung!


Rain radar more information rain snow radar


Visit our other weather sites:

Template documentation
and downloads

And another site



Weather Underground History page Text

Daily Summary for September 2, 2016 Units:  Metric    English   Both
« Previous Day
Next Day »
Daily Weekly Monthly Yearly Custom
  High: Low: Average:
Temperature: 30.8 °C 14.4 °C 23 °C
Dew Point: 14.4 °C 9.5 °C 12 °C
Humidity: 84 % 28 % 53 %
Wind Speed: 20.9 km/h 0.0 km/h 2.6 km/h
Wind Gust: 22.5 km/h - -
Wind:- - SW
Pressure: 1021.9 hPa 1017.5 hPa -
Precipitation: 0.0 mm    
Historical Graphs
 
 
Tabular Data for September 2, 2016
Time Temperature Dew Point Pressure Wind Wind Speed Wind Gust Humidity Rainfall Rate (Hourly)
00:02 19.8 °C 12.6 °C 1021.9 hPa NW 1.6 km/h 3.2 km/h 63 % 0.0 mm
00:12 19.4 °C 11.9 °C 1021.9 hPa Calm   3.2 km/h 62 % 0.0 mm
00:17 19.3 °C 12.1 °C 1021.6 hPa WNW 1.6 km/h 3.2 km/h 63 % 0.0 mm
00:22 19.1 °C 12.1 °C 1021.9 hPa Calm   3.2 km/h 64 % 0.0 mm
00:27 19.0 °C 12.0 °C 1021.6 hPa Calm   1.6 km/h 64 % 0.0 mm
00:32 18.9 °C 11.9 °C 1021.6 hPa Calm   1.6 km/h 64 % 0.0 mm
00:37 19.0 °C 12.3 °C 1021.9 hPa Calm     65 % 0.0 mm
00:42 19.0 °C 12.3 °C 1021.9 hPa Calm   3.2 km/h 65 % 0.0 mm
00:47 18.9 °C 12.2 °C 1021.6 hPa Calm   3.2 km/h 65 % 0.0 mm
00:52 18.9 °C 12.2 °C 1021.6 hPa NNW 1.6 km/h 3.2 km/h 65 % 0.0 mm
00:57 19.0 °C 12.3 °C 1021.6 hPa Calm   1.6 km/h 65 % 0.0 mm
01:02 18.9 °C 12.4 °C 1021.6 hPa Calm   1.6 km/h 66 % 0.0 mm
01:12 18.7 °C 12.2 °C 1021.6 hPa Calm     66 % 0.0 mm
01:17 18.6 °C 12.1 °C 1021.6 hPa Calm   1.6 km/h 66 % 0.0 mm
01:22 18.4 °C 12.2 °C 1021.6 hPa Calm   3.2 km/h 67 % 0.0 mm
01:27 18.4 °C 12.2 °C 1021.6 hPa Calm   3.2 km/h 67 % 0.0 mm
01:32 18.6 °C 12.4 °C 1021.6 hPa Calm   1.6 km/h 67 % 0.0 mm
01:37 18.7 °C 12.2 °C 1021.6 hPa Calm   1.6 km/h 66 % 0.0 mm
01:42 18.4 °C 12.2 °C 1021.6 hPa Calm     67 % 0.0 mm
01:47 18.2 °C 12.0 °C 1021.6 hPa Calm     67 % 0.0 mm
01:52 17.9 °C 12.1 °C 1021.6 hPa Calm     69 % 0.0 mm
01:57 17.7 °C 11.9 °C 1021.6 hPa Calm     69 % 0.0 mm
02:02 17.5 °C 12.0 °C 1021.6 hPa Calm     70 % 0.0 mm
02:07 17.6 °C 12.1 °C 1021.6 hPa Calm     70 % 0.0 mm
02:12 17.9 °C 12.1 °C 1021.6 hPa Calm     69 % 0.0 mm
02:17 17.5 °C 12.0 °C 1021.6 hPa Calm     70 % 0.0 mm
02:22 17.1 °C 12.0 °C 1021.6 hPa Calm     72 % 0.0 mm
02:32 17.3 °C 12.0 °C 1021.6 hPa Calm     71 % 0.0 mm
02:37 17.4 °C 12.1 °C 1021.6 hPa Calm     71 % 0.0 mm
02:42 17.4 °C 12.1 °C 1021.6 hPa Calm     71 % 0.0 mm
02:47 17.4 °C 12.1 °C 1021.6 hPa Calm     71 % 0.0 mm
02:52 17.5 °C 12.2 °C 1021.6 hPa Calm     71 % 0.0 mm
02:57 17.6 °C 12.1 °C 1021.6 hPa Calm     70 % 0.0 mm
03:02 17.6 °C 12.1 °C 1021.6 hPa Calm     70 % 0.0 mm
03:07 17.3 °C 11.8 °C 1021.2 hPa Calm     70 % 0.0 mm
03:12 16.9 °C 12.0 °C 1021.2 hPa Calm     73 % 0.0 mm
03:17 16.8 °C 12.1 °C 1021.2 hPa Calm     74 % 0.0 mm
03:22 16.8 °C 12.1 °C 1021.2 hPa WNW 1.6 km/h 3.2 km/h 74 % 0.0 mm
03:27 16.9 °C 12.2 °C 1021.2 hPa WNW 1.6 km/h 3.2 km/h 74 % 0.0 mm
03:32 17.0 °C 12.1 °C 1021.2 hPa Calm   3.2 km/h 73 % 0.0 mm
03:37 17.0 °C 12.1 °C 1021.2 hPa Calm   1.6 km/h 73 % 0.0 mm
03:42 17.0 °C 12.1 °C 1021.2 hPa Calm   1.6 km/h 73 % 0.0 mm
03:47 16.9 °C 12.0 °C 1021.2 hPa Calm   1.6 km/h 73 % 0.0 mm
03:52 16.8 °C 11.9 °C 1021.2 hPa Calm   1.6 km/h 73 % 0.0 mm
03:57 16.6 °C 11.9 °C 1021.2 hPa Calm   1.6 km/h 74 % 0.0 mm
04:02 16.5 °C 12.1 °C 1020.9 hPa Calm     75 % 0.0 mm
04:12 16.6 °C 12.1 °C 1020.9 hPa Calm     75 % 0.0 mm
04:17 16.5 °C 12.1 °C 1020.9 hPa Calm     75 % 0.0 mm
04:22 16.3 °C 11.9 °C 1020.9 hPa Calm     75 % 0.0 mm
04:32 15.9 °C 11.9 °C 1020.9 hPa Calm     77 % 0.0 mm
04:37 15.9 °C 11.9 °C 1020.9 hPa Calm     77 % 0.0 mm
04:42 16.1 °C 12.1 °C 1020.9 hPa NW 1.6 km/h   77 % 0.0 mm
04:47 16.4 °C 12.2 °C 1020.9 hPa NNW 3.2 km/h 4.8 km/h 76 % 0.0 mm
04:52 16.6 °C 12.1 °C 1020.9 hPa NNW 3.2 km/h 4.8 km/h 75 % 0.0 mm
04:57 16.7 °C 12.0 °C 1020.9 hPa Calm   3.2 km/h 74 % 0.0 mm
05:02 16.4 °C 12.0 °C 1020.9 hPa Calm   3.2 km/h 75 % 0.0 mm
05:12 16.1 °C 11.9 °C 1020.9 hPa NNW 3.2 km/h 3.2 km/h 76 % 0.0 mm
05:17 16.1 °C 12.1 °C 1020.9 hPa North 1.6 km/h 3.2 km/h 77 % 0.0 mm
05:22 15.8 °C 11.8 °C 1020.9 hPa North 1.6 km/h 3.2 km/h 77 % 0.0 mm
05:32 15.8 °C 12.0 °C 1020.9 hPa NNW 1.6 km/h 3.2 km/h 78 % 0.0 mm
05:37 15.9 °C 11.9 °C 1020.9 hPa Calm   3.2 km/h 77 % 0.0 mm
05:42 15.8 °C 11.8 °C 1020.9 hPa Calm   3.2 km/h 77 % 0.0 mm
05:47 15.6 °C 11.8 °C 1020.9 hPa Calm   3.2 km/h 78 % 0.0 mm
05:52 15.4 °C 11.8 °C 1020.9 hPa Calm   1.6 km/h 79 % 0.0 mm
05:57 15.3 °C 11.9 °C 1020.9 hPa Calm   1.6 km/h 80 % 0.0 mm
06:02 15.3 °C 11.9 °C 1020.9 hPa Calm   1.6 km/h 80 % 0.0 mm
06:07 15.2 °C 11.8 °C 1020.9 hPa Calm     80 % 0.0 mm
06:12 15.1 °C 11.9 °C 1021.2 hPa Calm     81 % 0.0 mm
06:17 15.0 °C 11.8 °C 1020.9 hPa Calm     81 % 0.0 mm
06:22 15.0 °C 12.0 °C 1020.9 hPa Calm     82 % 0.0 mm
06:32 14.6 °C 11.6 °C 1020.9 hPa Calm     82 % 0.0 mm
06:37 14.4 °C 11.5 °C 1021.2 hPa Calm     83 % 0.0 mm
06:42 14.4 °C 11.7 °C 1021.2 hPa Calm     84 % 0.0 mm
06:47 14.5 °C 11.8 °C 1021.2 hPa Calm     84 % 0.0 mm
06:57 14.6 °C 11.7 °C 1021.2 hPa Calm   1.6 km/h 83 % 0.0 mm
07:02 14.6 °C 11.7 °C 1021.2 hPa Calm   1.6 km/h 83 % 0.0 mm
07:07 14.6 °C 11.7 °C 1021.2 hPa Calm   1.6 km/h 83 % 0.0 mm
07:12 14.6 °C 11.7 °C 1021.2 hPa Calm   3.2 km/h 83 % 0.0 mm
07:17 14.6 °C 11.6 °C 1021.2 hPa Calm   3.2 km/h 82 % 0.0 mm
07:22 14.4 °C 11.4 °C 1021.2 hPa Calm   1.6 km/h 82 % 0.0 mm
07:37 14.7 °C 11.8 °C 1021.2 hPa Calm     83 % 0.0 mm
07:42 14.9 °C 12.0 °C 1021.2 hPa Calm     83 % 0.0 mm
07:52 15.1 °C 12.0 °C 1021.2 hPa Calm   1.6 km/h 82 % 0.0 mm
07:57 15.3 °C 12.1 °C 1021.2 hPa Calm   1.6 km/h 81 % 0.0 mm
08:02 15.5 °C 12.1 °C 1021.2 hPa Calm   1.6 km/h 80 % 0.0 mm
08:07 15.9 °C 12.5 °C 1021.2 hPa Calm   1.6 km/h 80 % 0.0 mm
08:12 16.3 °C 12.5 °C 1021.2 hPa Calm     78 % 0.0 mm
08:17 16.7 °C 12.6 °C 1020.9 hPa Calm     77 % 0.0 mm
08:22 17.2 °C 12.9 °C 1020.9 hPa Calm     76 % 0.0 mm
08:32 18.2 °C 12.9 °C 1020.9 hPa Calm   1.6 km/h 71 % 0.0 mm
08:37 18.0 °C 12.9 °C 1020.9 hPa Calm   1.6 km/h 72 % 0.0 mm
08:42 18.3 °C 13.4 °C 1020.9 hPa Calm   1.6 km/h 73 % 0.0 mm
08:47 18.8 °C 13.6 °C 1020.9 hPa Calm     72 % 0.0 mm
08:52 19.3 °C 13.9 °C 1020.9 hPa Calm     71 % 0.0 mm
08:57 19.4 °C 13.8 °C 1020.9 hPa Calm   1.6 km/h 70 % 0.0 mm
09:02 20.0 °C 13.5 °C 1020.9 hPa Calm   1.6 km/h 66 % 0.0 mm
09:07 20.6 °C 13.8 °C 1021.2 hPa Calm   1.6 km/h 65 % 0.0 mm
09:12 21.2 °C 13.4 °C 1020.9 hPa SSE 1.6 km/h 1.6 km/h 61 % 0.0 mm
09:17 21.1 °C 13.3 °C 1020.9 hPa ESE 1.6 km/h 4.8 km/h 61 % 0.0 mm
09:22 20.9 °C 13.3 °C 1020.9 hPa Calm   6.4 km/h 62 % 0.0 mm
09:32 21.1 °C 13.3 °C 1020.9 hPa SW 1.6 km/h 6.4 km/h 61 % 0.0 mm
09:37 20.9 °C 13.3 °C 1020.9 hPa SW 3.2 km/h 6.4 km/h 62 % 0.0 mm
09:42 21.0 °C 13.4 °C 1021.2 hPa SE 1.6 km/h 6.4 km/h 62 % 0.0 mm
09:47 21.3 °C 13.5 °C 1021.2 hPa Calm   8.0 km/h 61 % 0.0 mm
09:52 21.4 °C 13.6 °C 1021.2 hPa SSE 1.6 km/h 8.0 km/h 61 % 0.0 mm
09:57 21.5 °C 13.4 °C 1021.2 hPa SW 3.2 km/h 8.0 km/h 60 % 0.0 mm
10:02 21.6 °C 13.8 °C 1021.2 hPa SSW 8.0 km/h 8.0 km/h 61 % 0.0 mm
10:07 21.6 °C 13.5 °C 1021.2 hPa South 3.2 km/h 8.0 km/h 60 % 0.0 mm
10:12 21.8 °C 13.7 °C 1021.2 hPa SW 4.8 km/h 9.7 km/h 60 % 0.0 mm
10:17 22.0 °C 13.9 °C 1021.2 hPa SW 1.6 km/h 9.7 km/h 60 % 0.0 mm
10:22 22.3 °C 14.2 °C 1021.2 hPa South 4.8 km/h 8.0 km/h 60 % 0.0 mm
10:27 22.7 °C 14.0 °C 1021.2 hPa Calm   6.4 km/h 58 % 0.0 mm
10:32 23.0 °C 14.0 °C 1021.2 hPa Calm   6.4 km/h 57 % 0.0 mm
10:37 23.2 °C 14.2 °C 1021.2 hPa East 1.6 km/h 6.4 km/h 57 % 0.0 mm
10:42 23.2 °C 14.2 °C 1021.2 hPa SW 3.2 km/h 9.7 km/h 57 % 0.0 mm
10:47 23.7 °C 14.1 °C 1021.2 hPa SSW 3.2 km/h 9.7 km/h 55 % 0.0 mm
10:52 24.0 °C 14.1 °C 1020.9 hPa South 4.8 km/h 12.9 km/h 54 % 0.0 mm
11:02 24.5 °C 14.0 °C 1020.9 hPa SE 4.8 km/h 12.9 km/h 52 % 0.0 mm
11:07 24.6 °C 14.1 °C 1020.9 hPa SE 3.2 km/h 12.9 km/h 52 % 0.0 mm
11:12 24.9 °C 14.1 °C 1020.9 hPa Calm   12.9 km/h 51 % 0.0 mm
11:17 25.1 °C 14.3 °C 1020.9 hPa ESE 3.2 km/h 9.7 km/h 51 % 0.0 mm
11:22 25.2 °C 14.0 °C 1020.9 hPa SW 6.4 km/h 11.3 km/h 50 % 0.0 mm
11:27 25.4 °C 14.2 °C 1020.9 hPa ESE 4.8 km/h 11.3 km/h 50 % 0.0 mm
11:32 25.6 °C 13.8 °C 1020.9 hPa SSW 4.8 km/h 11.3 km/h 48 % 0.0 mm
11:37 25.8 °C 14.0 °C 1020.9 hPa South 1.6 km/h 9.7 km/h 48 % 0.0 mm
11:42 26.0 °C 13.8 °C 1020.5 hPa SSW 6.4 km/h 9.7 km/h 47 % 0.0 mm
11:47 26.2 °C 14.0 °C 1020.5 hPa SW 3.2 km/h 11.3 km/h 47 % 0.0 mm
11:52 26.1 °C 13.9 °C 1020.5 hPa SSW 4.8 km/h 11.3 km/h 47 % 0.0 mm
11:57 26.3 °C 14.1 °C 1020.5 hPa South 3.2 km/h 11.3 km/h 47 % 0.0 mm
12:02 26.6 °C 14.4 °C 1020.5 hPa ESE 1.6 km/h 9.7 km/h 47 % 0.0 mm
12:07 26.6 °C 13.7 °C 1020.5 hPa SW 6.4 km/h 9.7 km/h 45 % 0.0 mm
12:12 26.5 °C 13.6 °C 1020.5 hPa SSW 6.4 km/h 9.7 km/h 45 % 0.0 mm
12:17 26.7 °C 13.4 °C 1020.5 hPa SSE 6.4 km/h 9.7 km/h 44 % 0.0 mm
12:22 26.9 °C 13.6 °C 1020.5 hPa East 3.2 km/h 11.3 km/h 44 % 0.0 mm
12:27 27.1 °C 13.8 °C 1020.2 hPa Calm   11.3 km/h 44 % 0.0 mm
12:32 27.6 °C 14.2 °C 1020.2 hPa ESE 6.4 km/h 11.3 km/h 44 % 0.0 mm
12:42 27.8 °C 13.0 °C 1020.2 hPa South 3.2 km/h 12.9 km/h 40 % 0.0 mm
12:47 27.6 °C 12.8 °C 1020.2 hPa SW 8.0 km/h 11.3 km/h 40 % 0.0 mm
12:52 27.5 °C 13.1 °C 1020.2 hPa SW 6.4 km/h 12.9 km/h 41 % 0.0 mm
12:57 27.9 °C 12.7 °C 1020.2 hPa ESE 3.2 km/h 12.9 km/h 39 % 0.0 mm
13:02 28.2 °C 12.5 °C 1020.2 hPa SE 3.2 km/h 12.9 km/h 38 % 0.0 mm
13:07 28.4 °C 12.7 °C 1020.2 hPa SSE 3.2 km/h 12.9 km/h 38 % 0.0 mm
13:12 28.4 °C 13.1 °C 1020.2 hPa SSW 6.4 km/h 12.9 km/h 39 % 0.0 mm
13:17 28.4 °C 12.7 °C 1020.2 hPa Calm   11.3 km/h 38 % 0.0 mm
13:22 28.2 °C 12.1 °C 1020.2 hPa WSW 4.8 km/h 8.0 km/h 37 % 0.0 mm
13:27 28.4 °C 12.3 °C 1019.9 hPa SSW 4.8 km/h 11.3 km/h 37 % 0.0 mm
13:32 28.6 °C 12.9 °C 1019.9 hPa West 6.4 km/h 11.3 km/h 38 % 0.0 mm
13:37 28.6 °C 12.5 °C 1019.9 hPa SSW 4.8 km/h 12.9 km/h 37 % 0.0 mm
13:42 28.7 °C 12.6 °C 1019.9 hPa SW 3.2 km/h 12.9 km/h 37 % 0.0 mm
13:47 28.7 °C 13.0 °C 1019.9 hPa SSE 6.4 km/h 12.9 km/h 38 % 0.0 mm
13:52 29.0 °C 12.8 °C 1019.9 hPa ENE 6.4 km/h 12.9 km/h 37 % 0.0 mm
13:57 28.8 °C 12.2 °C 1019.9 hPa SW 9.7 km/h 12.9 km/h 36 % 0.0 mm
14:02 28.8 °C 11.8 °C 1019.9 hPa NW 4.8 km/h 17.7 km/h 35 % 0.0 mm
14:12 28.8 °C 11.8 °C 1019.5 hPa SE 3.2 km/h 16.1 km/h 35 % 0.0 mm
14:17 28.8 °C 11.8 °C 1019.5 hPa NW 1.6 km/h 12.9 km/h 35 % 0.0 mm
14:22 28.9 °C 11.9 °C 1019.5 hPa SE 1.6 km/h 11.3 km/h 35 % 0.0 mm
14:27 29.4 °C 11.4 °C 1019.5 hPa WSW 3.2 km/h 8.0 km/h 33 % 0.0 mm
14:32 29.1 °C 10.7 °C 1019.5 hPa West 4.8 km/h 14.5 km/h 32 % 0.0 mm
14:42 28.8 °C 10.9 °C 1019.2 hPa West 6.4 km/h 16.1 km/h 33 % 0.0 mm
14:47 28.8 °C 10.9 °C 1019.5 hPa WNW 8.0 km/h 16.1 km/h 33 % 0.0 mm
14:52 29.1 °C 11.2 °C 1019.2 hPa SW 3.2 km/h 12.9 km/h 33 % 0.0 mm
14:57 29.4 °C 11.4 °C 1019.2 hPa SW 8.0 km/h 12.9 km/h 33 % 0.0 mm
15:02 29.5 °C 11.5 °C 1019.2 hPa WNW 9.7 km/h 14.5 km/h 33 % 0.0 mm
15:07 29.2 °C 10.8 °C 1019.2 hPa WSW 9.7 km/h 20.9 km/h 32 % 0.0 mm
15:12 28.9 °C 11.0 °C 1019.2 hPa WSW 6.4 km/h 20.9 km/h 33 % 0.0 mm
15:17 28.9 °C 11.0 °C 1019.2 hPa SW 3.2 km/h 16.1 km/h 33 % 0.0 mm
15:22 29.1 °C 11.2 °C 1019.2 hPa WNW 4.8 km/h 16.1 km/h 33 % 0.0 mm
15:27 29.3 °C 11.4 °C 1018.8 hPa WSW 3.2 km/h 14.5 km/h 33 % 0.0 mm
15:32 29.2 °C 11.3 °C 1018.8 hPa WSW 8.0 km/h 14.5 km/h 33 % 0.0 mm
15:37 29.3 °C 11.4 °C 1018.8 hPa SW 3.2 km/h 14.5 km/h 33 % 0.0 mm
15:42 29.5 °C 11.5 °C 1018.8 hPa WSW 4.8 km/h 14.5 km/h 33 % 0.0 mm
15:47 29.8 °C 11.3 °C 1018.8 hPa ESE 1.6 km/h 14.5 km/h 32 % 0.0 mm
15:52 29.9 °C 11.4 °C 1018.8 hPa WNW 6.4 km/h 14.5 km/h 32 % 0.0 mm
15:57 29.8 °C 11.3 °C 1018.8 hPa SW 17.7 km/h 17.7 km/h 32 % 0.0 mm
16:02 29.7 °C 11.2 °C 1018.5 hPa SW 17.7 km/h 17.7 km/h 32 % 0.0 mm
16:07 29.9 °C 11.4 °C 1018.5 hPa SSW 8.0 km/h 20.9 km/h 32 % 0.0 mm
16:12 29.9 °C 10.9 °C 1018.5 hPa SSW 4.8 km/h 20.9 km/h 31 % 0.0 mm
16:17 30.1 °C 11.1 °C 1018.5 hPa South 11.3 km/h 20.9 km/h 31 % 0.0 mm
16:22 29.9 °C 10.9 °C 1018.5 hPa SSW 6.4 km/h 16.1 km/h 31 % 0.0 mm
16:27 29.8 °C 10.9 °C 1018.5 hPa SW 3.2 km/h 16.1 km/h 31 % 0.0 mm
16:32 29.8 °C 10.9 °C 1018.2 hPa SSW 20.9 km/h 20.9 km/h 31 % 0.0 mm
16:37 29.8 °C 11.3 °C 1018.2 hPa SSW 12.9 km/h 20.9 km/h 32 % 0.0 mm
16:42 29.8 °C 10.9 °C 1018.2 hPa SW 4.8 km/h 20.9 km/h 31 % 0.0 mm
16:47 29.8 °C 11.3 °C 1018.2 hPa South 8.0 km/h 20.9 km/h 32 % 0.0 mm
16:52 30.0 °C 11.5 °C 1018.2 hPa SW 8.0 km/h 19.3 km/h 32 % 0.0 mm
16:57 30.1 °C 11.6 °C 1018.2 hPa West 6.4 km/h 17.7 km/h 32 % 0.0 mm
17:02 30.2 °C 10.7 °C 1018.2 hPa WSW 9.7 km/h 17.7 km/h 30 % 0.0 mm
17:12 30.3 °C 11.3 °C 1017.8 hPa SSW 11.3 km/h 22.5 km/h 31 % 0.0 mm
17:17 30.2 °C 11.2 °C 1017.8 hPa WSW 8.0 km/h 19.3 km/h 31 % 0.0 mm
17:22 30.0 °C 11.0 °C 1017.8 hPa SW 6.4 km/h 19.3 km/h 31 % 0.0 mm
17:27 30.1 °C 11.1 °C 1017.8 hPa WSW 1.6 km/h 19.3 km/h 31 % 0.0 mm
17:32 30.3 °C 11.3 °C 1017.8 hPa West 6.4 km/h 14.5 km/h 31 % 0.0 mm
17:37 30.3 °C 11.3 °C 1017.8 hPa SSW 3.2 km/h 14.5 km/h 31 % 0.0 mm
17:42 30.2 °C 11.2 °C 1017.8 hPa WSW 6.4 km/h 9.7 km/h 31 % 0.0 mm
17:47 30.4 °C 10.9 °C 1017.8 hPa West 8.0 km/h 12.9 km/h 30 % 0.0 mm
17:52 30.3 °C 10.8 °C 1017.8 hPa West 4.8 km/h 12.9 km/h 30 % 0.0 mm
17:57 30.5 °C 11.0 °C 1017.8 hPa SSE 1.6 km/h 12.9 km/h 30 % 0.0 mm
18:02 30.8 °C 10.7 °C 1017.8 hPa WNW 4.8 km/h 12.9 km/h 29 % 0.0 mm
18:12 30.7 °C 10.6 °C 1017.5 hPa West 6.4 km/h 12.9 km/h 29 % 0.0 mm
18:22 30.0 °C 9.5 °C 1017.5 hPa SW 3.2 km/h 19.3 km/h 28 % 0.0 mm
18:27 29.8 °C 9.9 °C 1017.8 hPa WSW 4.8 km/h 19.3 km/h 29 % 0.0 mm
18:32 29.7 °C 10.3 °C 1017.8 hPa SW 11.3 km/h 19.3 km/h 30 % 0.0 mm
18:37 29.5 °C 10.1 °C 1017.8 hPa SW 3.2 km/h 12.9 km/h 30 % 0.0 mm
18:42 29.5 °C 10.6 °C 1017.8 hPa West 3.2 km/h 12.9 km/h 31 % 0.0 mm
18:47 29.4 °C 10.5 °C 1017.8 hPa West 3.2 km/h 12.9 km/h 31 % 0.0 mm
18:52 29.4 °C 10.5 °C 1017.8 hPa West 6.4 km/h 12.9 km/h 31 % 0.0 mm
18:57 29.4 °C 10.5 °C 1017.8 hPa West 3.2 km/h 12.9 km/h 31 % 0.0 mm
19:02 29.4 °C 10.5 °C 1017.8 hPa West 3.2 km/h 11.3 km/h 31 % 0.0 mm
19:07 29.3 °C 10.9 °C 1017.8 hPa WNW 4.8 km/h 11.3 km/h 32 % 0.0 mm
19:12 29.2 °C 10.8 °C 1017.8 hPa NW 6.4 km/h 11.3 km/h 32 % 0.0 mm
19:17 29.2 °C 10.8 °C 1017.8 hPa WNW 4.8 km/h 11.3 km/h 32 % 0.0 mm
19:22 29.1 °C 10.7 °C 1017.8 hPa WNW 1.6 km/h 11.3 km/h 32 % 0.0 mm
19:27 29.1 °C 11.2 °C 1017.8 hPa WNW 8.0 km/h 11.3 km/h 33 % 0.0 mm
19:32 29.0 °C 11.1 °C 1017.8 hPa WNW 6.4 km/h 9.7 km/h 33 % 0.0 mm
19:37 28.8 °C 10.9 °C 1017.8 hPa WNW 4.8 km/h 9.7 km/h 33 % 0.0 mm
19:42 28.7 °C 11.3 °C 1017.8 hPa WNW 8.0 km/h 9.7 km/h 34 % 0.0 mm
19:47 28.4 °C 11.5 °C 1017.8 hPa WNW 3.2 km/h 9.7 km/h 35 % 0.0 mm
19:52 28.2 °C 11.3 °C 1017.8 hPa WNW 3.2 km/h 8.0 km/h 35 % 0.0 mm
19:57 28.0 °C 11.1 °C 1017.8 hPa Calm   8.0 km/h 35 % 0.0 mm
20:02 27.8 °C 11.4 °C 1017.8 hPa WNW 1.6 km/h 6.4 km/h 36 % 0.0 mm
20:07 27.6 °C 11.6 °C 1018.2 hPa WNW 3.2 km/h 4.8 km/h 37 % 0.0 mm
20:12 27.3 °C 11.3 °C 1018.2 hPa Calm   4.8 km/h 37 % 0.0 mm
20:17 27.0 °C 11.5 °C 1018.2 hPa WNW 1.6 km/h 4.8 km/h 38 % 0.0 mm
20:22 26.8 °C 11.7 °C 1018.2 hPa WNW 1.6 km/h 4.8 km/h 39 % 0.0 mm
20:27 26.6 °C 11.5 °C 1018.2 hPa Calm   3.2 km/h 39 % 0.0 mm
20:32 26.5 °C 11.4 °C 1018.2 hPa WNW 1.6 km/h 4.8 km/h 39 % 0.0 mm
20:37 26.2 °C 11.5 °C 1018.2 hPa Calm   4.8 km/h 40 % 0.0 mm
20:42 25.8 °C 11.5 °C 1018.2 hPa Calm   4.8 km/h 41 % 0.0 mm
20:47 25.4 °C 11.6 °C 1018.2 hPa Calm   3.2 km/h 42 % 0.0 mm
20:52 24.9 °C 11.8 °C 1018.2 hPa Calm   1.6 km/h 44 % 0.0 mm
20:57 24.7 °C 12.3 °C 1018.2 hPa Calm   1.6 km/h 46 % 0.0 mm
21:02 24.4 °C 12.4 °C 1018.5 hPa Calm     47 % 0.0 mm
21:07 24.2 °C 12.2 °C 1018.5 hPa Calm     47 % 0.0 mm
21:12 24.0 °C 12.3 °C 1018.5 hPa Calm     48 % 0.0 mm
21:17 23.7 °C 12.0 °C 1018.5 hPa Calm     48 % 0.0 mm
21:22 23.6 °C 12.3 °C 1018.5 hPa Calm     49 % 0.0 mm
21:27 23.3 °C 12.3 °C 1018.8 hPa Calm     50 % 0.0 mm
21:32 22.9 °C 11.9 °C 1018.8 hPa WNW 1.6 km/h 1.6 km/h 50 % 0.0 mm
21:37 22.9 °C 11.9 °C 1018.8 hPa West 3.2 km/h 3.2 km/h 50 % 0.0 mm
21:42 23.2 °C 12.2 °C 1018.8 hPa West 1.6 km/h 6.4 km/h 50 % 0.0 mm
21:47 23.5 °C 12.2 °C 1018.8 hPa WNW 3.2 km/h 6.4 km/h 49 % 0.0 mm
21:52 23.6 °C 12.3 °C 1018.8 hPa Calm   6.4 km/h 49 % 0.0 mm
21:57 23.2 °C 12.2 °C 1018.8 hPa WNW 3.2 km/h 6.4 km/h 50 % 0.0 mm
22:02 22.9 °C 11.9 °C 1019.2 hPa WNW 1.6 km/h 4.8 km/h 50 % 0.0 mm
22:07 23.2 °C 11.9 °C 1019.2 hPa WNW 1.6 km/h 4.8 km/h 49 % 0.0 mm
22:12 23.3 °C 11.7 °C 1019.2 hPa West 3.2 km/h 4.8 km/h 48 % 0.0 mm
22:17 23.3 °C 11.4 °C 1019.2 hPa WNW 3.2 km/h 4.8 km/h 47 % 0.0 mm
22:22 23.3 °C 11.4 °C 1018.8 hPa WNW 3.2 km/h 4.8 km/h 47 % 0.0 mm
22:27 23.3 °C 11.0 °C 1019.2 hPa Calm   4.8 km/h 46 % 0.0 mm
22:32 23.3 °C 11.0 °C 1019.2 hPa WNW 4.8 km/h 4.8 km/h 46 % 0.0 mm
22:37 23.3 °C 10.7 °C 1019.2 hPa WNW 3.2 km/h 6.4 km/h 45 % 0.0 mm
22:42 23.2 °C 10.6 °C 1019.2 hPa West 1.6 km/h 6.4 km/h 45 % 0.0 mm
22:47 23.1 °C 10.5 °C 1019.2 hPa WNW 1.6 km/h 6.4 km/h 45 % 0.0 mm
22:52 23.0 °C 10.4 °C 1018.8 hPa WNW 1.6 km/h 4.8 km/h 45 % 0.0 mm
22:57 22.9 °C 10.0 °C 1018.8 hPa WNW 1.6 km/h 3.2 km/h 44 % 0.0 mm
23:02 22.8 °C 10.2 °C 1018.8 hPa Calm   3.2 km/h 45 % 0.0 mm
23:07 22.7 °C 10.2 °C 1018.8 hPa Calm   3.2 km/h 45 % 0.0 mm
23:12 22.6 °C 10.4 °C 1018.8 hPa Calm   3.2 km/h 46 % 0.0 mm
23:17 22.2 °C 10.7 °C 1018.8 hPa Calm   1.6 km/h 48 % 0.0 mm
23:22 21.8 °C 10.6 °C 1018.8 hPa Calm     49 % 0.0 mm
23:27 21.4 °C 10.5 °C 1018.8 hPa Calm     50 % 0.0 mm
23:32 21.1 °C 10.6 °C 1018.8 hPa Calm     51 % 0.0 mm
23:37 20.9 °C 10.4 °C 1018.8 hPa Calm     51 % 0.0 mm
23:42 20.9 °C 10.4 °C 1018.8 hPa Calm     51 % 0.0 mm
23:47 20.9 °C 10.4 °C 1018.8 hPa Calm     51 % 0.0 mm
23:52 20.7 °C 10.2 °C 1018.8 hPa Calm     51 % 0.0 mm
23:57 20.6 °C 10.4 °C 1018.8 hPa Calm     52 % 0.0 mm
Meteo18
Compliments of Weather Underground - 4 mb

Script developed by  Jim McMurry - jmcmurry@mwt.net Adapted for the template by  Wim van der Kuil - Leuven-Template.eu

You find our weather info also at:

European Weather Network

Weather Underground

Equipment we use:

Weather-station
Davis Vue

Weather-program
Meteohub

Weather-server
Raspberry PI 2 B+

Provider
1 and 1

Davis Vue

Meteohub

Raspberry PI 2 B+

1 and 1